Time;durP1;ratioP1;P1;durP2;ratioP2;P2;SDS_P1;SDS_P2;PMS_P1;PMS_P2;Temp;Humidity;BMP_temperature;BMP_pressure;BME280_temperature;BME280_humidity;BME280_pressure;Samples;Min_cycle;Max_cycle;Signal;HPM_P1;HPM_P2
2022/09/14 00:00:22;;;;;;;3.78;2.88;;;;;;;8.91;68.73;93393.63;5090609;28;20056;-34
2022/09/14 00:02:47;;;;;;;4.63;3.15;;;;;;;8.91;69.75;93415.66;5090692;28;20487;-34
2022/09/14 00:05:13;;;;;;;3.80;3.20;;;;;;;8.94;69.25;93420.81;5090613;28;20024;-34
2022/09/14 00:07:38;;;;;;;3.53;3.20;;;;;;;8.78;69.35;93421.97;5090774;28;20057;-34
2022/09/14 00:10:04;;;;;;;5.65;2.60;;;;;;;8.68;69.67;93423.72;5090727;28;20027;-34
2022/09/14 00:12:30;;;;;;;3.70;2.70;;;;;;;8.53;69.81;93429.09;5090566;28;20491;-34
2022/09/14 00:14:55;;;;;;;5.07;3.83;;;;;;;8.53;69.10;93418.09;5090575;28;20023;-34
2022/09/14 00:17:20;;;;;;;5.68;3.92;;;;;;;8.63;69.19;93423.84;5090591;28;20028;-34
2022/09/14 00:19:46;;;;;;;5.05;4.43;;;;;;;8.51;69.83;93428.88;5089814;28;20027;-34
2022/09/14 00:22:12;;;;;;;4.10;3.47;;;;;;;8.68;69.57;93426.47;5090316;28;20035;-34
2022/09/14 00:24:38;;;;;;;38.38;5.60;;;;;;;8.70;69.47;93429.44;5090501;28;20408;-34
2022/09/14 00:27:03;;;;;;;4.90;3.20;;;;;;;8.59;69.56;93424.19;5070289;28;20021;-34
2022/09/14 00:29:29;;;;;;;4.13;2.92;;;;;;;8.65;69.76;93421.28;5087037;28;20027;-34
2022/09/14 00:31:55;;;;;;;4.30;3.53;;;;;;;8.47;69.14;93422.25;5090655;28;20016;-34
2022/09/14 00:34:21;;;;;;;4.28;3.08;;;;;;;8.53;69.50;93415.34;5072696;28;20024;-34
2022/09/14 00:36:50;;;;;;;3.63;3.00;;;;;;;8.51;68.87;93395.84;5090325;28;20020;-34
2022/09/14 00:39:16;;;;;;;;;;;;;;;8.45;69.18;93422.75;5090828;28;20099;-34
2022/09/14 00:41:44;;;;;;;7.15;2.22;;;;;;;8.42;69.16;93423.84;5090194;28;20050;-34
2022/09/14 00:44:10;;;;;;;3.50;2.10;;;;;;;8.36;69.23;93425.97;5090342;28;20111;-34
2022/09/14 00:46:36;;;;;;;1.88;1.75;;;;;;;8.34;69.08;93431.25;5090563;28;20162;-34
2022/09/14 00:49:05;;;;;;;2.40;2.22;;;;;;;8.25;68.99;93428.97;5090516;28;20403;-34
2022/09/14 00:51:32;;;;;;;3.35;2.97;;;;;;;8.34;68.73;93428.50;5072505;28;20109;-34
2022/09/14 00:53:59;;;;;;;4.60;2.50;;;;;;;8.32;69.25;93417.31;5072465;28;20470;-34
2022/09/14 00:56:25;;;;;;;2.97;2.28;;;;;;;8.27;69.29;93418.19;5072531;28;20451;-34
2022/09/14 00:58:52;;;;;;;7.38;3.53;;;;;;;8.23;68.49;93423.22;5089999;28;20139;-34
2022/09/14 01:01:17;;;;;;;4.78;4.47;;;;;;;8.26;68.16;93419.44;5090334;28;20024;-34
2022/09/14 01:03:43;;;;;;;2.75;2.55;;;;;;;8.24;69.00;93427.47;5090322;28;20073;-34
2022/09/14 01:06:32;;;;;;;5.45;5.15;;;;;;;8.23;67.98;93428.72;5090029;28;20479;-34
2022/09/14 01:09:14;;;;;;;12.02;10.98;;;;;;;8.13;69.06;93430.47;5090082;28;20113;-34
2022/09/14 01:11:46;;;;;;;6.53;6.13;;;;;;;8.18;69.10;93430.34;5072325;28;20028;-34
2022/09/14 01:14:17;;;;;;;5.90;4.55;;;;;;;8.11;69.21;93427.50;5072345;28;20233;-34
2022/09/14 01:17:04;;;;;;;3.28;2.97;;;;;;;7.92;69.31;93426.94;5090191;28;20388;-34
2022/09/14 01:19:50;;;;;;;7.20;6.57;;;;;;;7.87;69.57;93422.28;5053261;28;20510;-34
2022/09/14 01:22:22;;;;;;;3.10;2.90;;;;;;;7.83;69.88;93410.88;5051894;28;20024;-34
2022/09/14 01:24:53;;;;;;;2.85;2.55;;;;;;;7.94;69.61;93418.88;5069273;28;20021;-34
2022/09/14 01:27:40;;;;;;;5.35;4.85;;;;;;;7.76;69.98;93419.75;5051876;28;20073;-34
2022/09/14 01:30:11;;;;;;;3.47;2.67;;;;;;;7.85;69.66;93414.56;5069920;28;20032;-34
2022/09/14 01:32:47;;;;;;;3.72;2.55;;;;;;;7.77;68.89;93407.50;5055146;28;20020;-34
2022/09/14 01:35:21;;;;;;;4.07;2.85;;;;;;;7.82;70.03;93425.91;5055618;28;20404;-34
2022/09/14 01:37:51;;;;;;;3.25;2.95;;;;;;;7.54;69.74;93429.94;5073231;28;20024;-34
2022/09/14 01:40:23;;;;;;;5.03;3.30;;;;;;;7.49;70.33;93427.31;5073109;28;20034;-34
2022/09/14 01:42:52;;;;;;;4.10;2.80;;;;;;;7.54;69.90;93427.19;5073453;28;20032;-34
2022/09/14 01:45:18;;;;;;;5.10;3.13;;;;;;;7.62;69.34;93421.81;5055314;28;20546;-34
2022/09/14 01:47:56;;;;;;;9.77;3.80;;;;;;;7.43;70.62;93424.66;5073304;28;20039;-34
2022/09/14 01:50:26;;;;;;;4.43;3.55;;;;;;;7.51;70.17;93420.00;5055133;28;20523;-34
2022/09/14 01:53:08;;;;;;;5.28;3.38;;;;;;;7.51;70.44;93417.25;5055106;28;20020;-34
2022/09/14 01:55:47;;;;;;;4.65;2.95;;;;;;;7.59;69.72;93420.84;5072984;28;20492;-34
2022/09/14 01:58:36;;;;;;;4.93;2.80;;;;;;;7.66;69.45;93416.72;5055289;28;20473;-34
2022/09/14 02:01:03;;;;;;;3.25;2.95;;;;;;;7.65;69.53;93421.47;5055360;28;20082;-34
2022/09/14 02:03:36;;;;;;;2.70;2.50;;;;;;;7.48;69.67;93431.31;5055327;28;20062;-34
2022/09/14 02:06:28;;;;;;;2.97;2.67;;;;;;;7.13;70.03;93376.81;5054899;28;20020;-34
2022/09/14 02:08:53;;;;;;;3.72;2.55;;;;;;;7.39;69.93;93404.25;5054901;28;20409;-34
2022/09/14 02:11:19;;;;;;;3.40;3.10;;;;;;;7.32;70.20;93411.13;5072675;28;20016;-34
2022/09/14 02:13:44;;;;;;;2.78;2.47;;;;;;;7.30;69.76;93415.66;5056703;28;20036;-34
2022/09/14 02:16:10;;;;;;;3.22;2.45;;;;;;;7.35;69.19;93418.31;5092771;28;20016;-34
2022/09/14 02:18:37;;;;;;;2.92;2.67;;;;;;;7.33;69.13;93423.59;5074641;28;20016;-34
2022/09/14 02:21:12;;;;;;;3.00;2.65;;;;;;;7.38;68.87;93413.78;5074537;28;20408;-34
2022/09/14 02:23:37;;;;;;;3.17;2.85;;;;;;;7.22;69.76;93409.34;5074950;28;20411;-34
2022/09/14 02:26:03;;;;;;;3.30;2.65;;;;;;;7.19;69.84;93404.91;5081043;28;20028;-34
2022/09/14 02:28:29;;;;;;;3.38;3.08;;;;;;;7.04;70.89;93402.69;5080791;28;20077;-34
2022/09/14 02:31:06;;;;;;;5.47;3.50;;;;;;;7.15;71.13;93412.72;5074466;28;20407;-34
2022/09/14 02:33:38;;;;;;;3.92;2.95;;;;;;;7.18;70.24;93415.16;5092769;28;20454;-34
2022/09/14 02:36:37;;;;;;;3.95;3.03;;;;;;;7.18;70.76;93419.91;5092360;28;20531;-34
2022/09/14 02:39:13;;;;;;;3.42;3.13;;;;;;;7.09;70.38;93418.31;5083768;28;20032;-34
2022/09/14 02:41:49;;;;;;;2.97;2.72;;;;;;;6.92;70.91;93412.38;5092303;28;20024;-34
2022/09/14 02:44:23;;;;;;;3.25;2.40;;;;;;;6.92;71.11;93417.13;5073883;28;20031;-34
2022/09/14 02:47:00;;;;;;;5.85;2.90;;;;;;;6.92;70.53;93412.38;5092137;28;20039;-34
2022/09/14 02:49:53;;;;;;;4.45;3.90;;;;;;;6.86;70.84;93409.72;5074474;28;20023;-34
2022/09/14 02:52:40;;;;;;;6.10;4.75;;;;;;;6.95;71.02;93408.59;5092049;28;20142;-34
2022/09/14 02:55:10;;;;;;;7.07;3.67;;;;;;;6.95;70.46;93414.09;5074195;28;20017;-34
2022/09/14 02:58:12;;;;;;;14.98;7.93;;;;;;;6.97;70.63;93413.56;5074035;28;20032;-34
2022/09/14 03:00:44;;;;;;;10.63;6.28;;;;;;;7.00;70.53;93410.50;5091966;28;20508;-34
2022/09/14 03:03:11;;;;;;;8.45;6.53;;;;;;;6.96;70.79;93418.28;5091981;28;20428;-34
2022/09/14 03:05:37;;;;;;;9.73;6.20;;;;;;;6.95;70.84;93425.06;5091716;28;20028;-34
2022/09/14 03:08:02;;;;;;;10.25;7.13;;;;;;;6.98;70.22;93429.50;5091987;28;20081;-34
2022/09/14 03:10:29;;;;;;;10.50;6.53;;;;;;;6.93;70.76;93427.56;5085802;28;20086;-34
2022/09/14 03:12:55;;;;;;;7.95;5.55;;;;;;;6.62;70.90;93393.44;5071691;28;20028;-34
2022/09/14 03:15:20;;;;;;;13.43;7.53;;;;;;;6.78;71.54;93416.34;5071646;28;20036;-34
2022/09/14 03:17:47;;;;;;;5.35;4.13;;;;;;;6.77;71.12;93425.88;5071327;28;20487;-34
2022/09/14 03:20:14;;;;;;;7.10;5.10;;;;;;;6.67;71.12;93428.25;5071585;28;20097;-34
2022/09/14 03:22:39;;;;;;;6.40;4.07;;;;;;;6.82;70.27;93427.78;5071185;28;20032;-34
2022/09/14 03:25:06;;;;;;;6.07;4.15;;;;;;;6.90;69.75;93420.41;5070419;28;20078;-34
2022/09/14 03:27:31;;;;;;;3.75;2.97;;;;;;;6.87;70.25;93418.69;5071633;28;20047;-34
2022/09/14 03:29:56;;;;;;;4.25;3.42;;;;;;;6.84;70.19;93417.03;5091325;28;20483;-34
2022/09/14 03:32:22;;;;;;;3.65;3.00;;;;;;;6.86;70.10;93417.94;5073238;28;20042;-34
2022/09/14 03:34:47;;;;;;;5.45;4.55;;;;;;;6.82;69.97;93422.31;5091549;28;20027;-34
2022/09/14 03:37:13;;;;;;;5.97;3.72;;;;;;;6.82;69.84;93414.06;5091214;28;20024;-34
2022/09/14 03:39:39;;;;;;;4.63;3.78;;;;;;;6.70;70.18;93418.25;5091091;28;20498;-34
2022/09/14 03:42:04;;;;;;;6.30;4.82;;;;;;;6.47;70.76;93409.66;5091179;28;20020;-34
2022/09/14 03:44:30;;;;;;;4.93;3.72;;;;;;;6.58;70.37;93436.88;5091373;28;20581;-34
2022/09/14 03:46:55;;;;;;;6.00;4.05;;;;;;;6.44;70.22;93435.38;5091235;28;20024;-34
2022/09/14 03:49:21;;;;;;;5.55;4.05;;;;;;;6.55;70.83;93439.94;5091320;28;20093;-34
2022/09/14 03:51:46;;;;;;;5.43;4.32;;;;;;;6.50;70.61;93438.75;5090852;28;20552;-34
2022/09/14 03:54:11;;;;;;;6.60;4.90;;;;;;;6.48;71.00;93435.81;5090432;28;20042;-34
2022/09/14 03:56:37;;;;;;;4.40;3.75;;;;;;;6.34;71.14;93417.84;5090809;28;20031;-34
2022/09/14 03:59:02;;;;;;;8.15;3.95;;;;;;;6.50;71.24;93432.53;5090662;28;20047;-34
2022/09/14 04:01:28;;;;;;;6.93;4.80;;;;;;;6.55;70.96;93437.19;5091064;28;20081;-34
2022/09/14 04:03:54;;;;;;;7.43;4.63;;;;;;;6.62;71.11;93434.59;5090669;28;20024;-34
2022/09/14 04:06:20;;;;;;;10.10;5.07;;;;;;;6.53;71.40;93432.25;5088158;28;22582;-34
2022/09/14 04:08:46;;;;;;;8.65;5.18;;;;;;;6.35;71.73;93407.59;5070456;28;20489;-34
2022/09/14 04:11:17;;;;;;;8.38;5.07;;;;;;;6.42;72.32;93431.66;5070666;28;20416;-34
2022/09/14 04:13:44;;;;;;;4.93;3.83;;;;;;;6.50;71.94;93422.31;5070780;28;20415;-34
2022/09/14 04:16:09;;;;;;;7.65;5.10;;;;;;;6.45;72.48;93433.38;5070385;28;20029;-34
2022/09/14 04:18:35;;;;;;;5.93;4.68;;;;;;;6.55;73.36;93435.19;5070336;28;20549;-34
2022/09/14 04:21:05;;;;;;;4.30;3.67;;;;;;;6.68;71.87;93437.25;5070598;28;20021;-34
2022/09/14 04:23:30;;;;;;;7.25;4.97;;;;;;;6.66;71.36;93437.03;5052344;28;20051;-34
2022/09/14 04:25:56;;;;;;;5.35;3.85;;;;;;;6.55;71.61;93437.94;5069714;28;20024;-34
2022/09/14 04:28:22;;;;;;;5.47;4.47;;;;;;;6.55;71.48;93446.19;5077361;28;20411;-34
2022/09/14 04:30:57;;;;;;;5.25;4.38;;;;;;;6.55;71.85;93445.44;5090360;28;20031;-34
2022/09/14 04:33:23;;;;;;;7.50;4.75;;;;;;;6.49;72.03;93440.03;5072330;28;20049;-34
2022/09/14 04:36:02;;;;;;;5.90;4.28;;;;;;;6.50;72.15;93436.03;5090360;28;20024;-34
2022/09/14 04:38:28;;;;;;;7.10;4.72;;;;;;;6.35;73.56;93443.25;5090396;28;20030;-34
2022/09/14 04:40:54;;;;;;;7.40;5.20;;;;;;;6.45;74.02;93447.09;5090280;28;20110;-34
2022/09/14 04:43:20;;;;;;;9.48;5.95;;;;;;;6.56;73.94;93444.19;5090309;28;20016;-34
2022/09/14 04:45:46;;;;;;;8.90;5.75;;;;;;;6.50;74.67;93451.72;5090262;28;20145;-34
2022/09/14 04:48:11;;;;;;;7.90;5.95;;;;;;;6.41;74.19;93457.63;5090186;28;20047;-34
2022/09/14 04:50:36;;;;;;;8.52;5.97;;;;;;;6.46;74.14;93446.56;5090156;28;20028;-34
2022/09/14 04:53:02;;;;;;;5.93;5.18;;;;;;;6.60;73.82;93444.63;5090283;28;20020;-34
2022/09/14 04:55:28;;;;;;;9.98;5.68;;;;;;;6.50;73.66;93452.47;5090488;28;20524;-34
2022/09/14 04:57:53;;;;;;;6.20;4.32;;;;;;;6.43;74.22;93449.63;5090450;28;20458;-34
2022/09/14 05:00:19;;;;;;;5.63;4.63;;;;;;;6.46;74.15;93443.81;5090103;28;20489;-34
2022/09/14 05:02:45;;;;;;;10.35;4.82;;;;;;;6.71;74.18;93452.66;5086094;28;20017;-34
2022/09/14 05:05:10;;;;;;;9.30;6.10;;;;;;;6.88;73.38;93453.13;5069965;28;20047;-34
2022/09/14 05:07:36;;;;;;;6.88;4.75;;;;;;;6.87;73.75;93449.63;5073267;28;20052;-34
2022/09/14 05:10:01;;;;;;;6.95;4.88;;;;;;;6.96;73.49;93447.75;5073885;28;20032;-34
2022/09/14 05:12:26;;;;;;;6.78;4.78;;;;;;;6.75;74.46;93411.94;5073673;28;20029;-34
2022/09/14 05:14:52;;;;;;;10.23;8.25;;;;;;;7.10;74.52;93452.75;5055829;28;20028;-34
2022/09/14 05:17:17;;;;;;;6.43;5.35;;;;;;;7.18;74.78;93453.59;5074009;28;20055;-35
2022/09/14 05:19:43;;;;;;;12.95;6.38;;;;;;;7.06;75.04;93457.06;5073759;28;20024;-34
2022/09/14 05:22:08;;;;;;;8.32;4.97;;;;;;;7.10;75.99;93457.50;5073534;28;20024;-34
2022/09/14 05:24:34;;;;;;;9.95;6.00;;;;;;;7.20;75.97;93462.03;5073756;28;20029;-35
2022/09/14 05:26:59;;;;;;;7.07;5.20;;;;;;;7.20;76.83;93458.56;5073276;28;20036;-34
2022/09/14 05:29:24;;;;;;;5.25;4.05;;;;;;;7.30;77.04;93454.88;5071620;28;20525;-34
2022/09/14 05:31:50;;;;;;;8.45;5.78;;;;;;;7.54;76.64;93454.66;5093633;28;20099;-35
2022/09/14 05:34:16;;;;;;;7.80;4.45;;;;;;;7.66;76.34;93471.69;5093837;28;20024;-34
2022/09/14 05:36:41;;;;;;;7.40;4.43;;;;;;;7.61;76.78;93447.78;5093806;28;20050;-35
2022/09/14 05:39:07;;;;;;;6.53;4.80;;;;;;;7.89;77.22;93463.72;5093448;28;20024;-34
2022/09/14 05:41:33;;;;;;;6.53;4.88;;;;;;;7.75;77.03;93443.78;5093432;28;20103;-34
2022/09/14 05:43:59;;;;;;;6.80;4.57;;;;;;;8.02;77.91;93463.69;5093427;28;20103;-34
2022/09/14 05:46:24;;;;;;;6.10;5.50;;;;;;;8.15;77.31;93461.66;5093613;28;20480;-34
2022/09/14 05:48:50;;;;;;;5.32;4.53;;;;;;;8.23;77.64;93454.22;5093296;28;20499;-34
2022/09/14 05:51:18;;;;;;;6.30;5.40;;;;;;;8.39;77.73;93466.91;5093452;28;20024;-35
2022/09/14 05:53:48;;;;;;;5.10;4.53;;;;;;;8.35;78.12;93471.25;5093162;28;20034;-34
2022/09/14 05:56:14;;;;;;;6.68;4.82;;;;;;;8.37;78.00;93472.22;5093546;28;20450;-34
2022/09/14 05:58:41;;;;;;;7.95;5.18;;;;;;;8.60;77.73;93468.97;5091754;28;20081;-35
2022/09/14 06:01:07;;;;;;;5.78;4.70;;;;;;;8.75;77.23;93475.34;5073060;28;20024;-34
2022/09/14 06:03:33;;;;;;;8.13;5.15;;;;;;;8.93;76.87;93485.44;5073134;28;20031;-35
2022/09/14 06:05:59;;;;;;;13.65;6.18;;;;;;;9.12;77.06;93480.44;5072799;28;20025;-34
2022/09/14 06:08:24;;;;;;;6.00;4.57;;;;;;;9.62;76.58;93464.63;5072773;28;20279;-34
2022/09/14 06:10:50;;;;;;;7.63;4.80;;;;;;;9.90;75.77;93470.88;5054865;28;20085;-34
2022/09/14 06:13:15;;;;;;;5.65;4.68;;;;;;;10.17;75.28;93471.41;5072599;28;20024;-34
2022/09/14 06:15:41;;;;;;;5.93;4.43;;;;;;;10.36;74.83;93473.84;5072875;28;20027;-34
2022/09/14 06:18:06;;;;;;;12.80;4.47;;;;;;;10.51;74.78;93460.84;5071624;28;20098;-34
2022/09/14 06:20:32;;;;;;;9.77;6.72;;;;;;;10.68;75.17;93459.59;5072826;28;20465;-34
2022/09/14 06:22:57;;;;;;;7.90;5.00;;;;;;;10.75;75.68;93454.09;5072692;28;20017;-34
2022/09/14 06:25:22;;;;;;;11.45;6.82;;;;;;;10.91;75.39;93463.88;5071829;28;20073;-34
2022/09/14 06:27:48;;;;;;;12.02;7.15;;;;;;;11.18;75.16;93464.25;5057115;28;20033;-34
2022/09/14 06:30:15;;;;;;;12.05;7.97;;;;;;;11.32;75.41;93457.25;5092495;28;20020;-35
2022/09/14 06:32:40;;;;;;;10.35;7.40;;;;;;;11.50;74.90;93469.22;5092389;28;20020;-35
2022/09/14 06:35:07;;;;;;;6.82;5.53;;;;;;;11.65;74.67;93467.16;5092578;28;20035;-35
2022/09/14 06:37:32;;;;;;;9.82;6.50;;;;;;;11.64;74.72;93471.25;5092706;28;20023;-35
2022/09/14 06:39:57;;;;;;;7.35;5.95;;;;;;;11.89;74.84;93457.59;5092288;28;20495;-35
2022/09/14 06:42:23;;;;;;;8.43;5.82;;;;;;;12.13;73.71;93460.44;5092223;28;20506;-35
2022/09/14 06:44:49;;;;;;;8.70;6.03;;;;;;;12.54;74.11;93467.47;5092246;28;20077;-35
2022/09/14 06:47:14;;;;;;;7.47;5.50;;;;;;;12.97;72.08;93458.03;5092218;28;20031;-35
2022/09/14 06:49:39;;;;;;;5.93;4.40;;;;;;;13.68;68.71;93451.56;5092132;28;20023;-35
2022/09/14 06:52:05;;;;;;;5.03;4.18;;;;;;;14.86;65.44;93451.34;5091874;28;20028;-35
2022/09/14 06:54:30;;;;;;;6.82;3.80;;;;;;;16.25;61.59;93453.53;5092073;28;20035;-35
2022/09/14 06:56:56;;;;;;;3.58;3.08;;;;;;;17.28;57.54;93456.03;5073655;28;20021;-35
2022/09/14 06:59:21;;;;;;;3.38;3.08;;;;;;;17.87;55.58;93455.22;5071910;28;20040;-35
2022/09/14 07:01:50;;;;;;;4.85;3.45;;;;;;;18.12;54.10;93452.00;5071950;28;20394;-35
2022/09/14 07:04:16;;;;;;;3.70;2.88;;;;;;;18.46;52.81;93450.72;5071870;28;20458;-35
2022/09/14 07:06:43;;;;;;;2.15;1.92;;;;;;;19.21;50.12;93442.94;5071909;28;20031;-35
2022/09/14 07:09:09;;;;;;;2.88;2.40;;;;;;;19.96;47.75;93447.50;5071417;28;20564;-35
2022/09/14 07:11:35;;;;;;;2.05;1.85;;;;;;;20.39;47.32;93448.69;5071436;28;20108;-35
2022/09/14 07:14:01;;;;;;;1.80;1.70;;;;;;;20.91;45.99;93442.50;5071421;28;20044;-35
2022/09/14 07:16:27;;;;;;;2.03;1.85;;;;;;;21.74;44.09;93422.47;5071705;28;20033;-35
2022/09/14 07:18:54;;;;;;;13.50;2.42;;;;;;;22.28;42.45;93435.81;5071664;28;20029;-35
2022/09/14 07:21:20;;;;;;;2.38;2.03;;;;;;;23.01;40.93;93442.97;5071503;28;20034;-36
2022/09/14 07:23:47;;;;;;;1.70;1.60;;;;;;;23.37;39.57;93450.34;5071141;28;20070;-36
2022/09/14 07:26:23;;;;;;;2.00;1.80;;;;;;;23.83;39.96;93454.56;5070951;28;20032;-35
2022/09/14 07:28:52;;;;;;;2.50;2.05;;;;;;;24.72;38.01;93464.81;5063800;28;20523;-35
2022/09/14 07:31:19;;;;;;;;;;;;;;;25.20;36.39;93461.19;5091731;28;20056;-35
2022/09/14 07:33:45;;;;;;;4.40;1.38;;;;;;;25.83;35.48;93455.91;5091526;28;19915;-36
2022/09/14 07:36:11;;;;;;;3.10;1.30;;;;;;;26.34;34.86;93450.00;5091262;28;20023;-35
2022/09/14 07:38:38;;;;;;;1.73;1.63;;;;;;;27.12;33.24;93457.63;5091473;28;20020;-35
2022/09/14 07:41:04;;;;;;;4.60;2.15;;;;;;;27.87;32.25;93463.59;5091106;28;20023;-35
2022/09/14 07:43:30;;;;;;;1.98;1.80;;;;;;;28.42;30.58;93449.59;5091091;28;20020;-36
2022/09/14 07:45:55;;;;;;;2.03;1.42;;;;;;;28.69;30.55;93453.91;5091317;28;20419;-36
2022/09/14 07:48:22;;;;;;;1.58;1.38;;;;;;;29.06;29.87;93450.59;5091309;28;20027;-35
2022/09/14 07:50:48;;;;;;;1.35;1.17;;;;;;;29.33;29.12;93454.13;5090952;28;20491;-36
2022/09/14 07:53:13;;;;;;;1.70;1.50;;;;;;;29.51;28.31;93451.72;5063058;28;20039;-36
2022/09/14 07:55:39;;;;;;;2.20;1.42;;;;;;;29.68;28.60;93445.00;5070719;28;20024;-35
2022/09/14 07:58:06;;;;;;;1.83;1.30;;;;;;;30.32;27.28;93440.75;5070870;28;20028;-36
2022/09/14 08:00:31;;;;;;;0.85;0.80;;;;;;;30.42;26.64;93440.22;5070491;28;20040;-36
2022/09/14 08:02:58;;;;;;;1.52;1.00;;;;;;;30.47;26.72;93442.47;5070549;28;20526;-36
2022/09/14 08:05:24;;;;;;;1.30;1.00;;;;;;;30.79;26.10;93448.06;5070915;28;20027;-36
2022/09/14 08:07:56;;;;;;;1.38;1.02;;;;;;;31.50;24.73;93444.38;5070860;28;20067;-36
2022/09/14 08:10:22;;;;;;;1.48;1.10;;;;;;;30.74;25.57;93449.41;5070510;28;20484;-36
2022/09/14 08:12:52;;;;;;;1.10;1.00;;;;;;;30.95;25.00;93442.69;5070374;28;20150;-36
2022/09/14 08:15:19;;;;;;;1.35;1.13;;;;;;;31.10;24.71;93438.66;5070944;28;20013;-36
2022/09/14 08:17:46;;;;;;;1.27;1.05;;;;;;;31.00;24.98;93437.78;5070418;28;20020;-36
2022/09/14 08:20:11;;;;;;;1.30;1.08;;;;;;;31.02;24.74;93441.38;5070764;28;20411;-36
2022/09/14 08:22:37;;;;;;;1.95;1.00;;;;;;;31.73;23.95;93440.44;5070255;28;20012;-36
2022/09/14 08:25:03;;;;;;;1.27;0.90;;;;;;;31.90;23.09;93441.41;5070000;28;20490;-36
2022/09/14 08:27:29;;;;;;;1.38;1.27;;;;;;;32.13;23.75;93435.31;5070601;28;20448;-36
2022/09/14 08:29:54;;;;;;;1.02;0.93;;;;;;;32.52;23.02;93435.81;5090277;28;20015;-36
2022/09/14 08:32:20;;;;;;;1.20;1.08;;;;;;;32.00;23.88;93436.56;5090606;28;20020;-36
2022/09/14 08:34:46;;;;;;;0.85;0.85;;;;;;;32.25;22.66;93431.88;5090408;28;20028;-36
2022/09/14 08:37:12;;;;;;;1.15;1.02;;;;;;;32.52;22.48;93427.25;5090743;28;20047;-36
2022/09/14 08:39:38;;;;;;;0.90;0.90;;;;;;;32.89;22.75;93429.09;5090543;28;20469;-36
2022/09/14 08:42:05;;;;;;;2.53;1.08;;;;;;;32.70;22.47;93431.03;5093320;28;20028;-36
2022/09/14 08:44:40;;;;;;;1.00;0.90;;;;;;;32.65;22.66;93426.69;5077008;28;20028;-36
2022/09/14 08:47:26;;;;;;;1.17;1.08;;;;;;;33.18;22.16;93445.13;5094858;28;20024;-36
2022/09/14 08:50:11;;;;;;;1.60;1.35;;;;;;;33.40;22.51;93430.28;5056975;28;20419;-36
2022/09/14 08:52:52;;;;;;;1.25;0.90;;;;;;;34.37;21.03;93428.13;5078817;28;20126;-36
2022/09/14 08:55:40;;;;;;;1.95;0.98;;;;;;;33.53;22.10;93438.31;5094690;28;20020;-36
2022/09/14 08:58:08;;;;;;;2.15;1.13;;;;;;;33.13;21.73;93434.34;5076569;28;20122;-36
2022/09/14 09:00:41;;;;;;;;;;;;;;;32.85;22.20;93435.47;5094852;28;20131;-36
2022/09/14 09:03:25;;;;;;;1.30;1.20;;;;;;;32.46;22.40;93433.59;5076399;28;19934;-36
2022/09/14 09:06:05;;;;;;;1.30;1.20;;;;;;;32.30;23.55;93432.66;5094133;28;20411;-36
2022/09/14 09:08:30;;;;;;;1.23;1.13;;;;;;;33.11;22.57;93437.94;5094436;28;20027;-36
2022/09/14 09:10:58;;;;;;;0.80;0.80;;;;;;;32.81;22.24;93438.28;5093968;28;20123;-33
2022/09/14 09:13:28;;;;;;;1.08;0.98;;;;;;;33.17;23.03;93434.38;5075884;28;20518;-34
2022/09/14 09:15:57;;;;;;;1.73;0.90;;;;;;;32.00;23.17;93421.56;5094208;28;20035;-34
2022/09/14 09:18:25;;;;;;;;;;;;;;;32.40;22.37;93433.50;5076440;28;20031;-33
2022/09/14 09:20:54;;;;;;;1.40;1.10;;;;;;;32.53;22.66;93434.41;5075744;28;19919;-33
2022/09/14 09:23:22;;;;;;;1.10;1.00;;;;;;;33.11;22.79;93425.75;5075942;28;20016;-33
2022/09/14 09:25:58;;;;;;;0.80;0.80;;;;;;;32.82;23.47;93434.03;5084169;28;20021;-33
2022/09/14 09:28:25;;;;;;;1.20;1.10;;;;;;;33.08;22.20;93427.16;5081110;28;20403;-33
2022/09/14 09:30:56;;;;;;;0.93;0.90;;;;;;;33.43;22.50;93429.63;5093987;28;20059;-33
2022/09/14 09:33:23;;;;;;;3.38;1.33;;;;;;;33.93;22.00;93435.03;5093539;28;20119;-33
2022/09/14 09:35:50;;;;;;;2.05;1.20;;;;;;;33.72;21.65;93412.69;5093844;28;20407;-33
2022/09/14 09:38:20;;;;;;;1.23;1.13;;;;;;;33.80;22.02;93419.19;5075808;28;20031;-33
2022/09/14 09:40:49;;;;;;;1.15;1.00;;;;;;;34.52;21.17;93421.03;5093786;28;20073;-33
2022/09/14 09:43:17;;;;;;;1.63;1.23;;;;;;;33.38;20.87;93418.84;5093744;28;20077;-33
2022/09/14 09:45:47;;;;;;;7.45;1.55;;;;;;;33.70;22.33;93418.41;5093329;28;20518;-34
2022/09/14 09:48:13;;;;;;;1.23;1.10;;;;;;;33.10;22.08;93421.44;5075631;28;20111;-34
2022/09/14 09:50:50;;;;;;;1.35;1.20;;;;;;;33.52;21.79;93411.13;5093267;28;20024;-34
2022/09/14 09:53:17;;;;;;;1.52;1.25;;;;;;;34.12;20.81;93405.06;5065279;28;20064;-33
2022/09/14 09:55:47;;;;;;;0.85;0.85;;;;;;;34.52;20.55;93401.69;5055162;28;20028;-33
2022/09/14 09:58:28;;;;;;;1.77;0.98;;;;;;;33.70;21.68;93407.66;5054923;28;20025;-33
2022/09/14 10:00:56;;;;;;;1.20;1.10;;;;;;;33.45;21.30;93406.00;5073170;28;20055;-34
2022/09/14 10:03:33;;;;;;;0.93;0.93;;;;;;;34.14;21.02;93407.22;5073146;28;20028;-34
2022/09/14 10:06:01;;;;;;;1.77;0.85;;;;;;;34.39;21.15;93405.19;5072992;28;20429;-34
2022/09/14 10:08:27;;;;;;;5.47;3.10;;;;;;;34.83;20.70;93406.09;5055018;28;20054;-34
2022/09/14 10:10:52;;;;;;;4.50;1.20;;;;;;;34.80;20.50;93410.38;5055127;28;20051;-34
2022/09/14 10:13:28;;;;;;;1.10;1.00;;;;;;;34.64;20.08;93409.59;5072503;28;20505;-34
2022/09/14 10:16:04;;;;;;;1.40;1.30;;;;;;;34.75;20.27;93403.19;5054732;28;20020;-33
2022/09/14 10:18:30;;;;;;;2.60;1.42;;;;;;;34.94;19.28;93395.34;5072852;28;20099;-34
2022/09/14 10:20:58;;;;;;;1.95;1.50;;;;;;;35.11;19.15;93396.81;5072743;28;20534;-33
2022/09/14 10:23:26;;;;;;;5.93;1.02;;;;;;;35.05;19.19;93409.03;5072504;28;20028;-33
2022/09/14 10:26:13;;;;;;;1.00;0.93;;;;;;;34.59;20.59;93402.44;5054153;28;20103;-33
2022/09/14 10:28:43;;;;;;;0.95;0.70;;;;;;;35.15;18.83;93396.13;5081600;28;20469;-33
2022/09/14 10:31:16;;;;;;;0.90;0.85;;;;;;;34.55;19.92;93399.53;5092527;28;20024;-33
2022/09/14 10:33:42;;;;;;;0.82;0.75;;;;;;;34.13;19.50;93405.81;5092452;28;20067;-33
2022/09/14 10:36:29;;;;;;;1.08;1.00;;;;;;;34.26;19.74;93398.69;5092656;28;20063;-33
2022/09/14 10:39:14;;;;;;;0.90;0.80;;;;;;;34.14;19.66;93402.22;5092735;28;20032;-33
2022/09/14 10:41:45;;;;;;;1.17;1.08;;;;;;;33.24;20.78;93395.84;5092240;28;20036;-33
2022/09/14 10:44:46;;;;;;;1.10;1.00;;;;;;;33.12;21.50;93387.13;5074600;28;20101;-33
2022/09/14 10:47:53;;;;;;;2.08;0.90;;;;;;;33.79;21.69;93386.22;5091612;28;20510;-33
2022/09/14 10:50:40;;;;;;;2.15;0.90;;;;;;;34.63;19.47;93380.22;5078952;28;20044;-33
2022/09/14 10:53:20;;;;;;;1.15;0.90;;;;;;;34.40;20.71;93370.06;5083830;28;20024;-33
2022/09/14 10:56:33;;;;;;;1.50;1.05;;;;;;;34.31;19.98;93374.34;5054378;28;20033;-33
2022/09/14 10:59:26;;;;;;;0.60;0.60;;;;;;;34.49;19.32;93365.81;5054034;28;20051;-33
2022/09/14 11:01:54;;;;;;;1.80;1.00;;;;;;;34.91;18.32;93363.06;5072009;28;20078;-33
2022/09/14 11:04:38;;;;;;;0.93;0.93;;;;;;;35.23;18.49;93362.41;5071368;28;20052;-33
2022/09/14 11:07:21;;;;;;;1.58;0.88;;;;;;;35.12;19.26;93369.56;5071645;28;20504;-33
2022/09/14 11:09:56;;;;;;;1.13;0.80;;;;;;;34.12;20.07;93370.69;5071878;28;20031;-33
2022/09/14 11:12:40;;;;;;;1.27;1.13;;;;;;;33.85;19.38;93371.25;5053865;28;20029;-33
2022/09/14 11:15:09;;;;;;;1.42;0.70;;;;;;;33.57;20.37;93368.91;5071764;28;20033;-33
2022/09/14 11:17:59;;;;;;;0.93;0.82;;;;;;;33.28;20.79;93356.53;5053513;28;20039;-33
2022/09/14 11:20:43;;;;;;;3.50;0.95;;;;;;;32.98;20.84;93359.09;5071405;28;20496;-33
2022/09/14 11:23:38;;;;;;;3.08;0.98;;;;;;;32.51;21.25;93366.50;5071232;28;20059;-33
2022/09/14 11:26:10;;;;;;;1.42;1.30;;;;;;;32.87;20.70;93369.00;5082401;28;20461;-33
2022/09/14 11:28:44;;;;;;;1.33;1.08;;;;;;;32.65;20.75;93369.50;5082320;28;20474;-33
2022/09/14 11:31:27;;;;;;;5.38;1.15;;;;;;;32.22;21.24;93355.44;5053341;28;20029;-33
2022/09/14 11:34:13;;;;;;;0.80;0.80;;;;;;;31.98;21.16;93362.28;5071323;28;20484;-35
2022/09/14 11:36:43;;;;;;;3.95;1.15;;;;;;;32.03;21.46;93357.34;5076551;28;20522;-35
2022/09/14 11:39:19;;;;;;;1.08;0.90;;;;;;;31.79;21.46;93352.03;5073422;28;20056;-35
2022/09/14 11:41:50;;;;;;;1.75;1.20;;;;;;;31.38;21.48;93355.69;5073463;28;20027;-35
2022/09/14 11:44:20;;;;;;;1.00;0.90;;;;;;;31.46;22.35;93355.84;5091206;28;20027;-35
2022/09/14 11:46:51;;;;;;;0.73;0.73;;;;;;;31.09;22.93;93350.94;5091121;28;20484;-35
2022/09/14 11:49:40;;;;;;;1.10;1.00;;;;;;;31.24;22.80;93364.75;5073107;28;20031;-35
2022/09/14 11:52:20;;;;;;;0.80;0.80;;;;;;;30.98;22.58;93355.03;5090720;28;20028;-35